Norfolk Ns (Chambers Fld) Airport
KNGU : now visible

Airfield :











YOU CAN JOIN US ON...

 
LOGIN :

Register | Disclaimer

   EN    FR    IT 

 









Legend :    VFR   Marginal VFR   IFR   Intensive IFR   Very Intensive IFR
Visi :
Ceiling :
>= 8 km
>= 3000ft
5 to 8 km
1000 to 3000 ft
1500m to 5 km
500 to 1000 ft
800 to 1500m
200 to 500 ft
< 800m
< 200 ft
Symbols :   Thunderstorms  Fog  Heavy snow  Heavy precipitations  Wind > 20 kt






- Airport Elevation : 17 ft


KNGU - Norfolk Ns (Chambers Fld)

CURRENT METAR :
  • 300859Z 04018G27KT 6SM -RA BKN021 OVC030 19/16 A3012 RMK AO2 PK WND 06028/0810 RAB23 SLP199 P0001 60001 T01890156 55008

EXPIRED METARs :
  • 300759Z 05019G30KT 10SM SCT021 BKN026 OVC033 19/15 A3011 RMK AO2 PK WND 05031/0731 SLP197 T01940150
  • 300659Z 05018G27KT 10SM SCT021 BKN026 OVC031 19/14 A3013 RMK AO2 PK WND 06030/0620 SLP203 T01940144

TAF TAF KNGU
Valid from the 30 at 07:00 until the 01 at 07:00 UTC


3007/0107 05020G30KT 9999 OVC020 540003 QNH3008INS
BECMG 3009/3011 04020G33KT 6000 -RA OVC020CB 540003 QNH3006INS
BECMG 3015/3017 04022G35KT 4800 +RA OVC020CB 540003 QNH2998INS
FM301800 05028G40KT 4800 VCTS +RA OVC019CB 540003 QNH2978INS
TEMPO 0103/0107 08023G45KT 1600 TSRA BKN005CB OVC020 T18/3012Z T22/0103Z FN00247
KZDC FIR / North America



MET'MAP, your aeronautical weather chart ! - Copyright ORBIFLY December 2007 - Disclaimer

ORBIFLY MET'MAP TEAM :

Programming & Development : Alexandra Zaïnal
Original concept : Baudouin d'Aumeries
Technical & hardware support : Manuel Goepfert
Assistance : Marc-Olivier Méhu




SOURCES & CREDITS :

   NOAA       Earth
Advisory